createdAt,value
2022-11-17T00:00:25.013Z,11.10
2022-11-17T00:02:54.819Z,11.10
2022-11-17T00:05:23.952Z,11.10
2022-11-17T00:07:52.180Z,11.10
2022-11-17T00:10:20.453Z,11.10
2022-11-17T00:13:06.297Z,11.10
2022-11-17T00:15:34.482Z,11.10
2022-11-17T00:18:21.304Z,11.10
2022-11-17T00:21:06.785Z,11.10
2022-11-17T00:23:48.086Z,11.10
2022-11-17T00:26:17.093Z,11.00
2022-11-17T00:28:45.212Z,11.00
2022-11-17T00:31:31.873Z,11.00
2022-11-17T00:34:07.779Z,11.00
2022-11-17T00:36:38.662Z,11.00
2022-11-17T00:39:07.510Z,11.00
2022-11-17T00:41:35.650Z,11.10
2022-11-17T00:44:03.865Z,11.00
2022-11-17T00:46:32.639Z,11.00
2022-11-17T00:49:02.138Z,11.00
2022-11-17T00:51:30.778Z,11.00
2022-11-17T00:53:58.874Z,11.00
2022-11-17T00:56:27.348Z,11.00
2022-11-17T00:58:56.159Z,11.00
2022-11-17T01:01:25.005Z,11.00
2022-11-17T01:04:03.197Z,11.00
2022-11-17T01:06:35.152Z,11.00
2022-11-17T01:09:04.352Z,11.00
2022-11-17T01:11:32.626Z,11.10
2022-11-17T01:14:02.094Z,11.00
2022-11-17T01:16:32.204Z,11.00
2022-11-17T01:19:01.687Z,11.00
2022-11-17T01:21:30.970Z,11.10
2022-11-17T01:24:02.691Z,11.00
2022-11-17T01:26:33.257Z,11.10
2022-11-17T01:29:02.570Z,11.10
2022-11-17T01:31:32.744Z,11.10
2022-11-17T01:34:01.084Z,11.10
2022-11-17T01:36:52.110Z,11.10
2022-11-17T01:39:21.757Z,11.10
2022-11-17T01:41:50.373Z,11.20
2022-11-17T01:44:54.397Z,11.20
2022-11-17T01:47:25.683Z,11.20
2022-11-17T01:49:58.492Z,11.20
2022-11-17T01:52:27.761Z,11.20
2022-11-17T01:55:00.141Z,11.20
2022-11-17T01:57:33.208Z,11.30
2022-11-17T02:00:04.796Z,11.30
2022-11-17T02:02:34.116Z,11.20
2022-11-17T02:05:08.553Z,11.20
2022-11-17T02:07:39.330Z,11.30
2022-11-17T02:10:10.027Z,11.30
2022-11-17T02:12:38.286Z,11.30
2022-11-17T02:15:07.647Z,11.30
2022-11-17T02:17:38.549Z,11.30
2022-11-17T02:20:11.755Z,11.30
2022-11-17T02:23:15.586Z,11.30
2022-11-17T02:26:00.206Z,11.30
2022-11-17T02:28:31.583Z,11.30
2022-11-17T02:31:16.214Z,11.30
2022-11-17T02:33:54.427Z,11.30
2022-11-17T02:36:31.860Z,11.30
2022-11-17T02:39:11.061Z,11.30
2022-11-17T02:41:47.089Z,11.30
2022-11-17T02:44:21.767Z,11.30
2022-11-17T02:46:56.189Z,11.30
2022-11-17T02:53:06.527Z,11.40
2022-11-17T02:55:36.406Z,11.40
2022-11-17T02:58:05.201Z,11.30
2022-11-17T03:00:39.499Z,11.30
2022-11-17T03:03:26.392Z,11.30
2022-11-17T03:06:02.719Z,11.40
2022-11-17T03:08:42.429Z,11.30
2022-11-17T03:11:12.153Z,11.40
2022-11-17T03:13:48.154Z,11.40
2022-11-17T03:16:27.073Z,11.30
2022-11-17T03:19:05.737Z,11.30
2022-11-17T03:21:38.366Z,11.40
2022-11-17T03:24:15.598Z,11.30
2022-11-17T03:26:47.981Z,11.40
2022-11-17T03:29:20.774Z,11.40
2022-11-17T03:31:55.032Z,11.40
2022-11-17T03:34:25.781Z,11.40
2022-11-17T03:37:00.015Z,11.30
2022-11-17T03:39:32.726Z,11.40
2022-11-17T03:42:04.564Z,11.40
2022-11-17T03:44:36.053Z,11.40
2022-11-17T03:47:08.922Z,11.40
2022-11-17T03:49:41.542Z,11.40
2022-11-17T03:52:10.251Z,11.40
2022-11-17T03:54:39.204Z,11.50
2022-11-17T03:57:14.165Z,11.50
2022-11-17T03:59:51.624Z,11.50
2022-11-17T04:02:23.051Z,11.50
2022-11-17T04:05:09.091Z,11.50
2022-11-17T04:07:40.628Z,11.50
2022-11-17T04:10:11.371Z,11.50
2022-11-17T04:12:57.525Z,11.50
2022-11-17T04:15:43.434Z,11.50
2022-11-17T04:18:13.733Z,11.50
2022-11-17T04:20:41.904Z,11.50
2022-11-17T04:23:14.486Z,11.50
2022-11-17T04:26:02.349Z,11.50
2022-11-17T04:28:41.259Z,11.50
2022-11-17T04:31:15.190Z,11.50
2022-11-17T04:33:46.242Z,11.50
2022-11-17T04:36:16.669Z,11.50
2022-11-17T04:38:46.100Z,11.50
2022-11-17T04:41:45.492Z,11.50
2022-11-17T04:44:15.319Z,11.50
2022-11-17T04:46:44.887Z,11.50
2022-11-17T04:49:14.964Z,11.50
2022-11-17T04:51:43.950Z,11.50
2022-11-17T04:54:14.178Z,11.50
2022-11-17T04:56:42.698Z,11.50
2022-11-17T04:59:10.924Z,11.60
2022-11-17T05:01:39.130Z,11.60
2022-11-17T05:04:09.419Z,11.60
2022-11-17T05:06:40.747Z,11.50
2022-11-17T05:09:11.672Z,11.60
2022-11-17T05:12:09.377Z,11.60
2022-11-17T05:14:37.466Z,11.60
2022-11-17T05:17:11.380Z,11.60
2022-11-17T05:19:41.611Z,11.60
2022-11-17T05:22:25.816Z,11.60
2022-11-17T05:24:54.786Z,11.60
2022-11-17T05:27:24.534Z,11.60
2022-11-17T05:29:52.797Z,11.60
2022-11-17T05:32:21.359Z,11.60
2022-11-17T05:34:50.000Z,11.60
2022-11-17T05:37:19.542Z,11.60
2022-11-17T05:39:48.147Z,11.60
2022-11-17T05:42:16.293Z,11.60
2022-11-17T05:44:44.763Z,11.60
2022-11-17T05:47:13.392Z,11.60
2022-11-17T05:49:41.502Z,11.60
2022-11-17T05:52:10.135Z,11.60
2022-11-17T05:54:40.146Z,11.60
2022-11-17T05:57:13.385Z,11.60
2022-11-17T05:59:46.965Z,11.60
2022-11-17T06:02:19.842Z,11.60
2022-11-17T06:04:50.546Z,11.60
2022-11-17T06:07:21.124Z,11.60
2022-11-17T06:09:52.149Z,11.60
2022-11-17T06:16:11.516Z,11.60
2022-11-17T06:18:46.488Z,11.60
2022-11-17T06:21:16.947Z,11.60
2022-11-17T06:23:46.703Z,11.60
2022-11-17T06:26:17.639Z,11.60
2022-11-17T06:28:48.386Z,11.60
2022-11-17T06:31:18.226Z,11.60
2022-11-17T06:33:47.413Z,11.60
2022-11-17T06:36:15.684Z,11.60
2022-11-17T06:38:44.285Z,11.60
2022-11-17T06:41:12.422Z,11.70
2022-11-17T06:43:42.383Z,11.70
2022-11-17T06:46:11.002Z,11.70
2022-11-17T06:48:39.629Z,11.70
2022-11-17T06:51:08.445Z,11.70
2022-11-17T06:53:36.969Z,11.50
2022-11-17T06:56:08.011Z,11.70
2022-11-17T06:58:39.015Z,11.70
2022-11-17T07:01:11.864Z,11.70
2022-11-17T07:03:42.904Z,11.70
2022-11-17T07:06:12.687Z,11.70
2022-11-17T07:08:40.773Z,11.70
2022-11-17T07:11:11.580Z,11.70
2022-11-17T07:13:40.807Z,11.70
2022-11-17T07:16:13.011Z,11.70
2022-11-17T07:18:43.148Z,11.60
2022-11-17T07:21:13.627Z,11.60
2022-11-17T07:23:43.363Z,11.70
2022-11-17T07:26:11.443Z,11.60
2022-11-17T07:28:39.991Z,11.60
2022-11-17T07:31:10.205Z,11.70
2022-11-17T07:33:39.117Z,11.70
2022-11-17T07:36:09.581Z,11.70
2022-11-17T07:38:39.527Z,11.70
2022-11-17T07:41:09.001Z,11.70
2022-11-17T07:43:38.253Z,11.70
2022-11-17T07:46:07.233Z,11.70
2022-11-17T07:48:37.650Z,11.70
2022-11-17T07:51:06.941Z,11.70
2022-11-17T07:53:36.265Z,11.70
2022-11-17T07:56:05.252Z,11.70
2022-11-17T07:58:34.043Z,11.70
2022-11-17T08:01:06.860Z,11.70
2022-11-17T08:03:36.644Z,11.70
2022-11-17T08:06:05.707Z,11.80
2022-11-17T08:08:34.307Z,11.80
2022-11-17T08:11:05.144Z,11.70
2022-11-17T08:13:33.436Z,11.80
2022-11-17T08:16:02.546Z,11.80
2022-11-17T08:18:31.776Z,11.80
2022-11-17T08:21:06.224Z,11.80
2022-11-17T08:23:34.439Z,11.90
2022-11-17T08:26:03.694Z,11.90
2022-11-17T08:28:32.580Z,11.90
2022-11-17T08:31:02.511Z,11.90
2022-11-17T08:33:31.095Z,11.90
2022-11-17T08:35:59.350Z,12.00
2022-11-17T08:38:30.271Z,12.00
2022-11-17T08:40:58.605Z,12.00
2022-11-17T08:43:26.847Z,12.00
2022-11-17T08:45:55.444Z,12.10
2022-11-17T08:48:23.853Z,12.10
2022-11-17T08:50:52.771Z,12.10
2022-11-17T08:53:23.546Z,12.10
2022-11-17T08:55:53.569Z,12.10
2022-11-17T08:58:22.192Z,12.20
2022-11-17T09:00:50.379Z,12.20
2022-11-17T09:03:19.016Z,12.20
2022-11-17T09:05:48.830Z,12.10
2022-11-17T09:08:44.032Z,12.20
2022-11-17T09:11:08.115Z,12.20
2022-11-17T09:13:36.924Z,12.20
2022-11-17T09:16:07.389Z,12.20
2022-11-17T09:18:36.921Z,12.20
2022-11-17T09:21:08.025Z,12.20
2022-11-17T09:23:36.672Z,12.30
2022-11-17T09:26:11.019Z,12.30
2022-11-17T09:28:39.817Z,12.30
2022-11-17T09:31:09.394Z,12.30
2022-11-17T09:33:38.739Z,12.30
2022-11-17T09:36:08.843Z,12.40
2022-11-17T09:38:38.254Z,12.30
2022-11-17T09:41:22.754Z,12.40
2022-11-17T09:43:58.315Z,12.40
2022-11-17T09:46:32.946Z,12.40
2022-11-17T09:49:09.032Z,12.40
2022-11-17T09:51:39.885Z,12.40
2022-11-17T09:54:16.055Z,12.40
2022-11-17T09:56:47.037Z,12.40
2022-11-17T09:59:19.813Z,12.40
2022-11-17T10:01:47.976Z,12.50
2022-11-17T10:04:19.058Z,12.50
2022-11-17T10:06:51.155Z,12.50
2022-11-17T10:09:27.280Z,12.50
2022-11-17T10:12:08.935Z,12.60
2022-11-17T10:14:41.135Z,12.60
2022-11-17T10:17:10.699Z,12.60
2022-11-17T10:19:40.289Z,12.70
2022-11-17T10:22:21.111Z,12.70
2022-11-17T10:24:52.126Z,12.80
2022-11-17T10:27:24.938Z,12.80
2022-11-17T10:30:01.219Z,12.80
2022-11-17T10:32:31.271Z,12.80
2022-11-17T10:35:15.474Z,12.90
2022-11-17T10:37:46.969Z,12.90
2022-11-17T10:40:25.070Z,12.90
2022-11-17T10:43:21.830Z,12.90
2022-11-17T10:45:51.938Z,13.00
2022-11-17T10:48:28.983Z,13.00
2022-11-17T10:51:01.744Z,13.00
2022-11-17T10:53:46.219Z,13.00
2022-11-17T10:56:16.821Z,13.10
2022-11-17T10:59:13.162Z,13.10
2022-11-17T11:01:43.536Z,13.20
2022-11-17T11:04:31.222Z,13.20
2022-11-17T11:07:12.363Z,13.30
2022-11-17T11:09:48.015Z,13.30
2022-11-17T11:12:20.877Z,13.30
2022-11-17T11:14:55.237Z,13.30
2022-11-17T11:17:23.754Z,13.40
2022-11-17T11:19:53.843Z,13.40
2022-11-17T11:22:35.879Z,13.40
2022-11-17T11:25:12.512Z,13.40
2022-11-17T11:27:59.414Z,13.40
2022-11-17T11:30:33.028Z,13.50
2022-11-17T11:33:15.936Z,13.50
2022-11-17T11:36:15.618Z,13.50
2022-11-17T11:38:53.563Z,13.60
2022-11-17T11:41:36.440Z,13.60
2022-11-17T11:44:22.786Z,13.60
2022-11-17T11:47:01.432Z,13.70
2022-11-17T11:49:37.400Z,13.70
2022-11-17T11:52:12.603Z,13.70
2022-11-17T11:54:50.614Z,13.70
2022-11-17T11:57:22.858Z,13.80
2022-11-17T12:00:03.550Z,13.80
2022-11-17T12:02:43.659Z,13.90
2022-11-17T12:05:22.730Z,13.90
2022-11-17T12:07:56.062Z,14.10
2022-11-17T12:10:31.268Z,14.10
2022-11-17T12:13:00.218Z,14.30
2022-11-17T12:15:36.535Z,14.40
2022-11-17T12:18:14.344Z,14.50
2022-11-17T12:21:03.193Z,14.70
2022-11-17T12:23:57.322Z,14.90
2022-11-17T12:26:28.783Z,15.00
2022-11-17T12:29:27.580Z,15.20
2022-11-17T12:31:57.491Z,15.30
2022-11-17T12:34:31.058Z,15.30
2022-11-17T12:37:22.082Z,15.30
2022-11-17T12:39:59.676Z,15.30
2022-11-17T12:42:28.466Z,15.30
2022-11-17T12:45:01.292Z,15.40
2022-11-17T12:47:31.945Z,15.40
2022-11-17T12:50:35.697Z,15.40
2022-11-17T12:53:30.665Z,15.50
2022-11-17T12:56:32.079Z,15.60
2022-11-17T12:59:14.148Z,15.70
2022-11-17T13:01:48.905Z,15.60
2022-11-17T13:04:19.530Z,15.50
2022-11-17T13:07:03.614Z,15.40
2022-11-17T13:09:33.871Z,15.20
2022-11-17T13:12:05.341Z,15.10
2022-11-17T13:14:34.552Z,14.90
2022-11-17T13:17:03.767Z,14.80
2022-11-17T13:19:38.213Z,14.60
2022-11-17T13:22:16.006Z,14.60
2022-11-17T13:24:47.011Z,14.40
2022-11-17T13:27:22.494Z,14.30
2022-11-17T13:29:53.551Z,14.20
2022-11-17T13:32:25.765Z,14.10
2022-11-17T13:34:58.468Z,14.00
2022-11-17T13:37:29.713Z,13.90
2022-11-17T13:40:03.228Z,13.80
2022-11-17T13:42:33.620Z,13.80
2022-11-17T13:45:05.082Z,13.70
2022-11-17T13:47:46.404Z,13.70
2022-11-17T13:50:26.224Z,13.70
2022-11-17T13:52:58.252Z,13.60
2022-11-17T13:55:27.909Z,13.60
2022-11-17T13:57:58.548Z,13.60
2022-11-17T14:00:27.411Z,13.50
2022-11-17T14:02:56.279Z,13.50
2022-11-17T14:05:27.128Z,13.40
2022-11-17T14:07:58.363Z,13.40
2022-11-17T14:10:34.094Z,13.40
2022-11-17T14:13:23.701Z,13.40
2022-11-17T14:15:55.778Z,13.40
2022-11-17T14:18:36.768Z,13.30
2022-11-17T14:21:16.317Z,13.30
2022-11-17T14:23:46.744Z,13.30
2022-11-17T14:26:19.961Z,13.30
2022-11-17T14:28:50.054Z,13.30
2022-11-17T14:31:18.327Z,13.30
2022-11-17T14:33:47.495Z,13.30
2022-11-17T14:36:17.781Z,13.30
2022-11-17T14:38:47.932Z,13.40
2022-11-17T14:41:17.576Z,13.30
2022-11-17T14:43:46.279Z,13.30
2022-11-17T14:46:21.281Z,13.40
2022-11-17T14:48:49.456Z,13.40
2022-11-17T14:51:17.682Z,13.40
2022-11-17T14:53:48.337Z,13.40
2022-11-17T14:56:17.925Z,13.40
2022-11-17T14:58:47.075Z,13.40
2022-11-17T15:01:18.414Z,13.40
2022-11-17T15:03:48.291Z,13.40
2022-11-17T15:06:19.996Z,13.30
2022-11-17T15:08:53.858Z,13.40
2022-11-17T15:11:21.972Z,13.40
2022-11-17T15:13:50.555Z,13.30
2022-11-17T15:16:19.035Z,13.30
2022-11-17T15:18:48.106Z,13.30
2022-11-17T15:21:17.915Z,13.30
2022-11-17T15:23:46.301Z,13.30
2022-11-17T15:26:19.177Z,13.30
2022-11-17T15:28:47.675Z,13.20
2022-11-17T15:31:17.864Z,13.20
2022-11-17T15:33:47.377Z,13.20
2022-11-17T15:36:18.917Z,13.20
2022-11-17T15:38:47.728Z,13.10
2022-11-17T15:41:18.045Z,13.10
2022-11-17T15:43:47.101Z,13.10
2022-11-17T15:46:16.840Z,13.10
2022-11-17T15:48:47.701Z,13.00
2022-11-17T15:51:17.979Z,13.00
2022-11-17T15:53:48.170Z,13.00
2022-11-17T15:56:19.804Z,13.00
2022-11-17T15:58:49.969Z,13.00
2022-11-17T16:01:28.946Z,13.00
2022-11-17T16:03:59.655Z,13.00
2022-11-17T16:06:28.383Z,12.90
2022-11-17T16:08:58.094Z,12.90
2022-11-17T16:11:28.595Z,12.90
2022-11-17T16:13:58.214Z,12.90
2022-11-17T16:16:28.224Z,12.90
2022-11-17T16:18:56.730Z,12.90
2022-11-17T16:21:25.641Z,12.90
2022-11-17T16:23:55.089Z,12.90
2022-11-17T16:26:25.522Z,12.90
2022-11-17T16:28:59.271Z,12.90
2022-11-17T16:31:29.621Z,12.90
2022-11-17T16:33:59.088Z,12.90
2022-11-17T16:36:34.600Z,12.90
2022-11-17T16:39:06.793Z,12.90
2022-11-17T16:41:36.653Z,12.90
2022-11-17T16:44:08.989Z,12.90
2022-11-17T16:46:37.659Z,12.90
2022-11-17T16:49:07.450Z,12.90
2022-11-17T16:51:36.489Z,12.80
2022-11-17T16:54:06.764Z,12.90
2022-11-17T16:56:35.482Z,12.80
2022-11-17T16:59:05.475Z,12.80
2022-11-17T17:01:35.701Z,12.80
2022-11-17T17:04:05.423Z,12.80
2022-11-17T17:06:34.525Z,12.80
2022-11-17T17:09:04.501Z,12.80
2022-11-17T17:11:33.671Z,12.80
2022-11-17T17:14:05.073Z,12.80
2022-11-17T17:16:35.905Z,12.80
2022-11-17T17:19:06.187Z,12.80
2022-11-17T17:21:35.253Z,12.80
2022-11-17T17:24:03.583Z,12.70
2022-11-17T17:26:33.060Z,12.70
2022-11-17T17:29:02.244Z,12.80
2022-11-17T17:31:32.744Z,12.70
2022-11-17T17:34:02.312Z,12.70
2022-11-17T17:36:30.942Z,12.70
2022-11-17T17:39:01.826Z,12.70
2022-11-17T17:41:31.264Z,12.70
2022-11-17T17:44:01.866Z,12.70
2022-11-17T17:46:30.817Z,12.70
2022-11-17T17:48:59.354Z,12.70
2022-11-17T17:51:30.526Z,12.70
2022-11-17T17:54:01.882Z,12.70
2022-11-17T17:56:31.512Z,12.70
2022-11-17T17:58:59.945Z,12.70
2022-11-17T18:01:58.185Z,12.70
2022-11-17T18:04:26.873Z,12.70
2022-11-17T18:06:58.079Z,12.70
2022-11-17T18:09:26.671Z,12.70
2022-11-17T18:11:55.252Z,12.70
2022-11-17T18:14:25.122Z,12.60
2022-11-17T18:16:53.820Z,12.70
2022-11-17T18:19:25.868Z,12.60
2022-11-17T18:21:59.342Z,12.60
2022-11-17T18:24:27.544Z,12.60
2022-11-17T18:26:55.627Z,12.60
2022-11-17T18:29:23.842Z,12.60
2022-11-17T18:31:52.532Z,12.60
2022-11-17T18:34:23.401Z,12.60
2022-11-17T18:36:53.698Z,12.60
2022-11-17T18:39:23.858Z,12.60
2022-11-17T18:41:52.283Z,12.60
2022-11-17T18:44:20.687Z,12.60
2022-11-17T18:46:49.409Z,12.60
2022-11-17T18:49:17.797Z,12.60
2022-11-17T18:51:46.292Z,12.70
2022-11-17T18:54:14.667Z,12.70
2022-11-17T18:56:44.586Z,12.70
2022-11-17T18:59:13.069Z,12.70
2022-11-17T19:01:44.005Z,12.70
2022-11-17T19:04:13.651Z,12.70
2022-11-17T19:06:42.481Z,12.70
2022-11-17T19:09:11.620Z,12.70
2022-11-17T19:11:39.875Z,12.70
2022-11-17T19:14:09.517Z,12.80
2022-11-17T19:16:44.070Z,12.70
2022-11-17T19:19:14.968Z,12.70
2022-11-17T19:21:44.716Z,12.70
2022-11-17T19:24:13.365Z,12.70
2022-11-17T19:26:43.188Z,12.70
2022-11-17T19:29:17.044Z,12.70
2022-11-17T19:31:45.809Z,12.70
2022-11-17T19:34:14.663Z,12.70
2022-11-17T19:36:44.516Z,12.70
2022-11-17T19:39:14.752Z,12.70
2022-11-17T19:41:43.776Z,12.70
2022-11-17T19:44:13.631Z,12.70
2022-11-17T19:46:42.666Z,12.60
2022-11-17T19:49:12.426Z,12.60
2022-11-17T19:51:42.390Z,12.60
2022-11-17T19:54:11.204Z,12.60
2022-11-17T19:56:39.503Z,12.60
2022-11-17T19:59:13.992Z,12.60
2022-11-17T20:01:46.292Z,12.60
2022-11-17T20:04:14.741Z,12.60
2022-11-17T20:06:42.832Z,12.60
2022-11-17T20:09:13.140Z,12.60
2022-11-17T20:11:42.593Z,12.60
2022-11-17T20:14:11.323Z,12.60
2022-11-17T20:16:39.491Z,12.60
2022-11-17T20:19:10.247Z,12.60
2022-11-17T20:21:38.864Z,12.60
2022-11-17T20:24:07.376Z,12.60
2022-11-17T20:26:41.079Z,12.60
2022-11-17T20:29:10.060Z,12.60
2022-11-17T20:31:38.678Z,12.60
2022-11-17T20:34:08.443Z,12.50
2022-11-17T20:36:36.854Z,12.50
2022-11-17T20:39:07.099Z,12.50
2022-11-17T20:41:35.566Z,12.50
2022-11-17T20:44:04.255Z,12.50
2022-11-17T20:46:32.795Z,12.50
2022-11-17T20:49:01.143Z,12.50
2022-11-17T20:51:30.645Z,12.50
2022-11-17T20:53:58.767Z,12.50
2022-11-17T20:56:26.922Z,12.50
2022-11-17T20:58:55.031Z,12.40
2022-11-17T21:01:24.183Z,12.40
2022-11-17T21:03:52.718Z,12.40
2022-11-17T21:06:23.445Z,12.40
2022-11-17T21:08:53.368Z,12.40
2022-11-17T21:11:41.623Z,12.40
2022-11-17T21:14:11.128Z,12.30
2022-11-17T21:16:42.234Z,12.40
2022-11-17T21:19:10.529Z,12.30
2022-11-17T21:21:38.686Z,12.40
2022-11-17T21:24:09.477Z,12.30
2022-11-17T21:26:37.862Z,12.40
2022-11-17T21:29:07.187Z,12.30
2022-11-17T21:31:35.946Z,12.40
2022-11-17T21:34:06.073Z,12.40
2022-11-17T21:36:35.386Z,12.40
2022-11-17T21:39:04.329Z,12.40
2022-11-17T21:41:36.224Z,12.40
2022-11-17T21:44:04.766Z,12.40
2022-11-17T21:46:34.499Z,12.40
2022-11-17T21:49:02.830Z,12.40
2022-11-17T21:51:33.744Z,12.40
2022-11-17T21:54:03.480Z,12.40
2022-11-17T21:56:33.114Z,12.40
2022-11-17T21:59:03.466Z,12.40
2022-11-17T22:01:32.237Z,12.40
2022-11-17T22:04:00.945Z,12.40
2022-11-17T22:06:29.953Z,12.40
2022-11-17T22:08:59.497Z,12.40
2022-11-17T22:11:39.077Z,12.40
2022-11-17T22:14:10.900Z,12.40
2022-11-17T22:16:41.012Z,12.40
2022-11-17T22:19:09.690Z,12.30
2022-11-17T22:21:39.160Z,12.40
2022-11-17T22:24:10.074Z,12.30
2022-11-17T22:26:39.327Z,12.30
2022-11-17T22:29:12.078Z,12.30
2022-11-17T22:31:40.671Z,12.40
2022-11-17T22:34:09.117Z,12.30
2022-11-17T22:36:37.278Z,12.30
2022-11-17T22:39:06.102Z,12.30
2022-11-17T22:41:35.446Z,12.30
2022-11-17T22:44:03.569Z,12.30
2022-11-17T22:46:43.573Z,12.30
2022-11-17T22:49:11.794Z,12.30
2022-11-17T22:51:57.122Z,12.30
2022-11-17T22:54:25.220Z,12.30
2022-11-17T22:56:53.334Z,12.30
2022-11-17T22:59:23.898Z,12.30
2022-11-17T23:01:56.994Z,12.30
2022-11-17T23:04:25.569Z,12.30
2022-11-17T23:06:54.237Z,12.30
2022-11-17T23:09:22.394Z,12.30
2022-11-17T23:11:51.002Z,12.20
2022-11-17T23:14:19.540Z,12.20
2022-11-17T23:16:47.649Z,12.20
2022-11-17T23:19:17.917Z,12.20
2022-11-17T23:21:46.191Z,12.20
2022-11-17T23:24:15.190Z,12.20
2022-11-17T23:26:43.694Z,12.20
2022-11-17T23:29:11.972Z,12.20
2022-11-17T23:31:40.559Z,12.20
2022-11-17T23:34:10.713Z,12.20
2022-11-17T23:36:40.987Z,12.20
2022-11-17T23:39:09.716Z,12.10
2022-11-17T23:41:38.022Z,12.10
2022-11-17T23:44:07.102Z,12.10
2022-11-17T23:46:35.275Z,12.10
2022-11-17T23:49:04.649Z,12.10
2022-11-17T23:51:33.050Z,12.10
2022-11-17T23:54:03.661Z,12.10
2022-11-17T23:56:33.654Z,12.10
2022-11-17T23:59:01.865Z,12.10
